Maersk Bali — 9V7499 — position and weather

sailwx.info

Track history (hours):
 
Tides and Currents Weather Stations Pressure Air Temp Water Temp Dewpoint Dewpoint Depression Visibility Wind Speed Wind Dir Waves Ship Positions

Maersk Bali

Last reported at 2015-Mar-12 03:29 UTC. Time now 2015-Mar-30 09:25 UTC.
Position N 34°58' W 010°27'.
Warning: this ship's position is 18 days out of date.

Length 223 m; draft 9.1 m.

Type: Cargo ship. MMSI: 563102000.

Date/timePositionNaut miles runAvg speedWind from/ knotsBaromVisibWave heightAir tempDewpointWater temp
2015-Mar-12 03:29N 34°58' W 010°27'4611.5
2015-Mar-11 23:29N 35°11' W 009°33'1111.5
2015-Mar-11 22:31N 35°15' W 009°21'1111.7
2015-Mar-11 21:33N 35°18' W 009°07'1511.5
2015-Mar-11 20:14N 35°23' W 008°50'911.7
2015-Mar-11 19:27N 35°26' W 008°39'1612.0
2015-Mar-11 18:06N 35°30' W 008°20'1911.9
2015-Mar-11 16:33N 35°36' W 007°58'1211.6
2015-Mar-11 15:30N 35°39' W 007°44'1111.7
2015-Mar-11 14:33N 35°43' W 007°31'1412.0
2015-Mar-11 13:24N 35°47' W 007°15'2212.0
2015-Mar-11 11:33N 35°53' W 006°48'6510.8
2015-Mar-11 05:33N 35°59' W 005°29'9 9.1
2015-Mar-11 04:33N 36°07' W 005°24'2 0.5
2015-Mar-11 00:23N 36°09' W 005°25'0 0.0
2015-Mar-10 23:32N 36°09' W 005°25'0 0.1
2015-Mar-10 22:29N 36°09' W 005°25'0 0.1
2015-Mar-10 21:29N 36°09' W 005°25'0 0.1
2015-Mar-10 20:29N 36°09' W 005°25'0 0.0
2015-Mar-10 19:32N 36°09' W 005°25'0 0.0
2015-Mar-10 18:32N 36°09' W 005°25'0 0.0
2015-Mar-10 17:32N 36°10' W 005°25'3 2.7
2015-Mar-10 16:33N 36°07' W 005°23'2 1.6
2015-Mar-10 15:32N 36°06' W 005°25'0 0.2
2015-Mar-10 14:33N 36°06' W 005°25'3 2.6
2015-Mar-10 13:33N 36°08' W 005°26'0 0.0
2015-Mar-10 11:14N 36°08' W 005°26'0 0.0
2015-Mar-10 10:29N 36°08' W 005°26'0 0.0
2015-Mar-10 09:32N 36°08' W 005°26'0 0.0
2015-Mar-10 08:32N 36°08' W 005°26'0 0.0
2015-Mar-10 07:32N 36°08' W 005°26'0 0.0
2015-Mar-10 05:32N 36°08' W 005°26'0 0.0
2015-Mar-10 04:32N 36°08' W 005°26'0 0.0
2015-Mar-10 03:17N 36°08' W 005°26'0 0.0
2015-Mar-10 02:32N 36°08' W 005°26'0 0.0
2015-Mar-10 01:32N 36°08' W 005°26'0 0.0
2015-Mar-10 00:32N 36°08' W 005°26'0 0.0
2015-Mar-09 23:32N 36°08' W 005°26'0 0.1
2015-Mar-09 22:33N 36°08' W 005°26'4 3.9
2015-Mar-09 21:33N 36°06' W 005°22'22617.1
2015-Mar-09 08:19N 36°38' W 000°45'1213.4
2015-Mar-09 07:26N 36°40' W 000°30'1712.7
2015-Mar-09 06:04N 36°43' W 000°09'712.9
2015-Mar-09 05:32N 36°44' W 000°00'1313.0
2015-Mar-09 04:33N 36°47' E 000°15'1312.7
2015-Mar-09 03:32N 36°49' E 000°31'1312.6
2015-Mar-09 02:29N 36°51' E 000°48'1212.7
2015-Mar-09 01:31N 36°53' E 001°03'61312.3
2015-Mar-06 23:31N 36°37' E 013°48'1111.9
2015-Mar-06 22:33N 36°34' E 014°01'1212.0
2015-Mar-06 21:33N 36°31' E 014°16'1512.5
2015-Mar-06 20:23N 36°26' E 014°33'46511.1
2015-Mar-05 02:22N 37°37' E 024°09'1613.4
2015-Mar-05 01:08N 37°49' E 024°24'913.2
2015-Mar-05 00:28N 37°54' E 024°33'  
Track history (hours):
 
Tides and Currents Weather Stations Pressure Air Temp Water Temp Dewpoint Dewpoint Depression Visibility Wind Speed Wind Dir Waves Ship Positions

Maersk Bali

Last reported at 2015-Mar-12 03:29 UTC. Time now 2015-Mar-30 09:25 UTC.
Position N 34°58' W 010°27'.
Warning: this ship's position is 18 days out of date.

Length 223 m; draft 9.1 m.

Type: Cargo ship. MMSI: 563102000.

Date/timePositionNaut miles runAvg speedWind from/ knotsBaromVisibWave heightAir tempDewpointWater temp
2015-Mar-12 03:29N 34°58' W 010°27'4611.5
2015-Mar-11 23:29N 35°11' W 009°33'1111.5
2015-Mar-11 22:31N 35°15' W 009°21'1111.7
2015-Mar-11 21:33N 35°18' W 009°07'1511.5
2015-Mar-11 20:14N 35°23' W 008°50'911.7
2015-Mar-11 19:27N 35°26' W 008°39'1612.0
2015-Mar-11 18:06N 35°30' W 008°20'1911.9
2015-Mar-11 16:33N 35°36' W 007°58'1211.6
2015-Mar-11 15:30N 35°39' W 007°44'1111.7
2015-Mar-11 14:33N 35°43' W 007°31'1412.0
2015-Mar-11 13:24N 35°47' W 007°15'2212.0
2015-Mar-11 11:33N 35°53' W 006°48'6510.8
2015-Mar-11 05:33N 35°59' W 005°29'9 9.1
2015-Mar-11 04:33N 36°07' W 005°24'2 0.5
2015-Mar-11 00:23N 36°09' W 005°25'0 0.0
2015-Mar-10 23:32N 36°09' W 005°25'0 0.1
2015-Mar-10 22:29N 36°09' W 005°25'0 0.1
2015-Mar-10 21:29N 36°09' W 005°25'0 0.1
2015-Mar-10 20:29N 36°09' W 005°25'0 0.0
2015-Mar-10 19:32N 36°09' W 005°25'0 0.0
2015-Mar-10 18:32N 36°09' W 005°25'0 0.0
2015-Mar-10 17:32N 36°10' W 005°25'3 2.7
2015-Mar-10 16:33N 36°07' W 005°23'2 1.6
2015-Mar-10 15:32N 36°06' W 005°25'0 0.2
2015-Mar-10 14:33N 36°06' W 005°25'3 2.6
2015-Mar-10 13:33N 36°08' W 005°26'0 0.0
2015-Mar-10 11:14N 36°08' W 005°26'0 0.0
2015-Mar-10 10:29N 36°08' W 005°26'0 0.0
2015-Mar-10 09:32N 36°08' W 005°26'0 0.0
2015-Mar-10 08:32N 36°08' W 005°26'0 0.0
2015-Mar-10 07:32N 36°08' W 005°26'0 0.0
2015-Mar-10 05:32N 36°08' W 005°26'0 0.0
2015-Mar-10 04:32N 36°08' W 005°26'0 0.0
2015-Mar-10 03:17N 36°08' W 005°26'0 0.0
2015-Mar-10 02:32N 36°08' W 005°26'0 0.0
2015-Mar-10 01:32N 36°08' W 005°26'0 0.0
2015-Mar-10 00:32N 36°08' W 005°26'0 0.0
2015-Mar-09 23:32N 36°08' W 005°26'0 0.1
2015-Mar-09 22:33N 36°08' W 005°26'4 3.9
2015-Mar-09 21:33N 36°06' W 005°22'22617.1
2015-Mar-09 08:19N 36°38' W 000°45'1213.4
2015-Mar-09 07:26N 36°40' W 000°30'1712.7
2015-Mar-09 06:04N 36°43' W 000°09'712.9
2015-Mar-09 05:32N 36°44' W 000°00'1313.0
2015-Mar-09 04:33N 36°47' E 000°15'1312.7
2015-Mar-09 03:32N 36°49' E 000°31'1312.6
2015-Mar-09 02:29N 36°51' E 000°48'1212.7
2015-Mar-09 01:31N 36°53' E 001°03'61312.3
2015-Mar-06 23:31N 36°37' E 013°48'1111.9
2015-Mar-06 22:33N 36°34' E 014°01'1212.0
2015-Mar-06 21:33N 36°31' E 014°16'1512.5
2015-Mar-06 20:23N 36°26' E 014°33'46511.1
2015-Mar-05 02:22N 37°37' E 024°09'1613.4
2015-Mar-05 01:08N 37°49' E 024°24'913.2
2015-Mar-05 00:28N 37°54' E 024°33'  

Dump ship's entire track history